createdAt,value
2022-09-13T00:04:56.926Z,4.00
2022-09-13T00:09:59.532Z,4.50
2022-09-13T00:15:03.655Z,5.00
2022-09-13T00:20:07.145Z,3.50
2022-09-13T00:25:10.498Z,4.00
2022-09-13T00:30:15.361Z,4.25
2022-09-13T00:35:18.062Z,4.00
2022-09-13T00:40:22.458Z,4.75
2022-09-13T00:45:26.591Z,4.00
2022-09-13T00:50:34.049Z,4.00
2022-09-13T00:55:42.363Z,4.50
2022-09-13T01:00:47.240Z,5.25
2022-09-13T01:05:55.676Z,5.75
2022-09-13T01:11:00.495Z,5.00
2022-09-13T01:16:04.583Z,5.50
2022-09-13T01:21:45.828Z,5.00
2022-09-13T01:27:12.384Z,6.25
2022-09-13T01:32:21.993Z,4.50
2022-09-13T01:37:39.765Z,5.00
2022-09-13T01:42:57.881Z,4.75
2022-09-13T01:48:07.053Z,4.00
2022-09-13T01:53:21.815Z,5.50
2022-09-13T01:58:29.204Z,4.00
2022-09-13T02:03:39.204Z,5.75
2022-09-13T02:08:45.492Z,5.00
2022-09-13T02:13:52.442Z,5.00
2022-09-13T02:19:00.200Z,6.00
2022-09-13T02:24:07.522Z,5.00
2022-09-13T02:29:17.008Z,6.50
2022-09-13T02:34:24.137Z,5.00
2022-09-13T02:39:31.250Z,4.25
2022-09-13T02:44:37.567Z,5.00
2022-09-13T02:49:58.710Z,5.00
2022-09-13T02:55:10.273Z,4.50
2022-09-13T03:00:13.399Z,5.00
2022-09-13T03:05:17.766Z,4.75
2022-09-13T03:10:20.620Z,5.75
2022-09-13T03:15:38.414Z,4.50
2022-09-13T03:20:50.579Z,5.75
2022-09-13T03:26:08.391Z,4.75
2022-09-13T03:31:21.256Z,5.00
2022-09-13T03:36:31.803Z,5.25
2022-09-13T03:41:41.543Z,4.50
2022-09-13T03:46:48.712Z,5.50
2022-09-13T03:51:54.247Z,4.00
2022-09-13T03:57:11.285Z,5.00
2022-09-13T04:02:14.675Z,6.25
2022-09-13T04:07:21.349Z,5.50
2022-09-13T04:12:23.993Z,5.25
2022-09-13T04:17:26.616Z,5.00
2022-09-13T04:22:31.406Z,4.00
2022-09-13T04:27:35.591Z,5.50
2022-09-13T04:32:38.208Z,5.25
2022-09-13T04:37:42.598Z,5.00
2022-09-13T04:42:46.024Z,5.25
2022-09-13T04:47:52.671Z,6.00
2022-09-13T04:52:56.822Z,5.00
2022-09-13T04:57:59.387Z,5.25
2022-09-13T05:03:02.661Z,5.25
2022-09-13T05:08:06.638Z,5.00
2022-09-13T05:13:09.242Z,4.75
2022-09-13T05:18:11.838Z,4.00
2022-09-13T05:23:15.822Z,4.00
2022-09-13T05:28:18.389Z,4.75
2022-09-13T05:33:21.099Z,4.00
2022-09-13T05:38:25.181Z,4.00
2022-09-13T05:43:29.594Z,4.50
2022-09-13T05:48:33.475Z,5.00
2022-09-13T05:53:39.644Z,4.25
2022-09-13T05:58:44.103Z,4.00
2022-09-13T06:03:48.515Z,4.50
2022-09-13T06:08:54.852Z,5.50
2022-09-13T06:13:57.633Z,4.50
2022-09-13T06:19:00.618Z,4.00
2022-09-13T06:24:05.209Z,4.50
2022-09-13T06:29:07.987Z,5.00
2022-09-13T06:34:12.560Z,5.50
2022-09-13T06:39:16.618Z,4.50
2022-09-13T06:44:19.447Z,5.00
2022-09-13T06:49:22.086Z,4.50
2022-09-13T06:54:26.132Z,8.50
2022-09-13T06:59:28.762Z,8.50
2022-09-13T07:04:31.829Z,8.50
2022-09-13T07:09:35.741Z,8.25
2022-09-13T07:14:38.325Z,10.00
2022-09-13T07:19:41.570Z,9.50
2022-09-13T07:24:45.564Z,9.75
2022-09-13T07:29:48.206Z,9.50
2022-09-13T07:34:50.845Z,10.75
2022-09-13T07:39:54.805Z,7.75
2022-09-13T07:44:57.410Z,8.00
2022-09-13T07:50:00.177Z,7.75
2022-09-13T07:55:04.324Z,8.67
2022-09-13T08:00:08.811Z,8.50
2022-09-13T08:05:14.539Z,11.00
2022-09-13T08:10:18.640Z,13.75
2022-09-13T08:15:21.237Z,18.40
2022-09-13T08:20:23.874Z,21.20
2022-09-13T08:25:27.818Z,25.00
2022-09-13T08:30:33.210Z,24.00
2022-09-13T08:35:35.967Z,20.80
2022-09-13T08:40:46.408Z,13.50
2022-09-13T08:45:56.099Z,10.50
2022-09-13T08:51:04.739Z,9.00
2022-09-13T08:56:12.771Z,9.00
2022-09-13T09:01:26.011Z,10.00
2022-09-13T09:06:29.959Z,9.00
2022-09-13T09:11:42.774Z,9.75
2022-09-13T09:16:52.128Z,8.00
2022-09-13T09:21:54.915Z,8.75
2022-09-13T09:26:59.146Z,10.00
2022-09-13T09:32:16.745Z,8.00
2022-09-13T09:37:24.283Z,7.00
2022-09-13T09:42:30.931Z,7.50
2022-09-13T09:47:42.499Z,8.00
2022-09-13T09:52:53.403Z,9.00
2022-09-13T09:57:59.875Z,8.00
2022-09-13T10:03:06.109Z,8.00
2022-09-13T10:08:25.673Z,7.00
2022-09-13T10:13:31.851Z,8.00
2022-09-13T10:18:45.131Z,7.25
2022-09-13T10:23:50.697Z,8.00
2022-09-13T10:29:01.012Z,8.25
2022-09-13T10:34:05.992Z,7.75
2022-09-13T10:39:17.707Z,7.50
2022-09-13T10:44:29.810Z,7.00
2022-09-13T10:49:52.826Z,7.00
2022-09-13T10:54:56.086Z,6.75
2022-09-13T11:00:00.163Z,5.00
2022-09-13T11:05:20.592Z,5.25
2022-09-13T11:10:33.377Z,6.25
2022-09-13T11:15:51.164Z,5.75
2022-09-13T11:21:08.241Z,5.00
2022-09-13T11:26:28.567Z,4.75
2022-09-13T11:31:44.731Z,5.00
2022-09-13T11:37:03.478Z,6.25
2022-09-13T11:42:19.426Z,6.00
2022-09-13T11:47:35.598Z,5.25
2022-09-13T11:52:51.123Z,5.00
2022-09-13T11:57:56.911Z,5.00
2022-09-13T12:03:12.722Z,4.50
2022-09-13T12:08:21.287Z,4.00
2022-09-13T12:13:28.086Z,6.00
2022-09-13T12:18:37.043Z,5.00
2022-09-13T12:23:46.915Z,5.25
2022-09-13T12:28:54.467Z,6.00
2022-09-13T12:33:58.996Z,5.00
2022-09-13T12:39:37.895Z,4.75
2022-09-13T12:44:55.100Z,4.25
2022-09-13T12:55:56.498Z,5.00
2022-09-13T13:01:11.437Z,4.75
2022-09-13T13:06:30.075Z,3.75
2022-09-13T13:11:44.577Z,5.00
2022-09-13T13:16:48.356Z,5.00
2022-09-13T13:21:54.288Z,4.50
2022-09-13T13:26:58.505Z,5.00
2022-09-13T13:32:11.968Z,5.25
2022-09-13T13:37:36.497Z,4.00
2022-09-13T13:42:39.872Z,3.25
2022-09-13T13:48:11.800Z,4.00
2022-09-13T13:53:35.387Z,4.00
2022-09-13T13:58:48.012Z,4.00
2022-09-13T14:04:11.941Z,3.50
2022-09-13T14:09:33.439Z,4.00
2022-09-13T14:14:54.089Z,3.50
2022-09-13T14:20:01.557Z,4.00
2022-09-13T14:25:23.360Z,4.00
2022-09-13T14:30:31.980Z,3.00
2022-09-13T14:35:36.790Z,4.00
2022-09-13T14:40:40.863Z,2.75
2022-09-13T14:45:47.468Z,3.75
2022-09-13T14:50:53.327Z,2.25
2022-09-13T14:56:01.985Z,2.75
2022-09-13T15:01:08.399Z,3.00
2022-09-13T15:06:23.625Z,4.00
2022-09-13T15:11:33.549Z,2.50
2022-09-13T15:16:36.296Z,3.00
2022-09-13T15:21:39.060Z,2.00
2022-09-13T15:26:43.074Z,2.25
2022-09-13T15:31:45.859Z,2.50
2022-09-13T15:36:53.127Z,3.00
2022-09-13T15:41:58.697Z,2.00
2022-09-13T15:47:04.913Z,2.50
2022-09-13T15:52:09.605Z,3.00
2022-09-13T15:57:18.666Z,2.00
2022-09-13T16:02:23.905Z,2.25
2022-09-13T16:07:27.987Z,2.50
2022-09-13T16:12:32.039Z,3.00
2022-09-13T16:17:35.056Z,2.75
2022-09-13T16:22:37.801Z,2.75
2022-09-13T16:27:42.811Z,2.25
2022-09-13T16:32:45.589Z,2.75
2022-09-13T16:37:51.332Z,2.25
2022-09-13T16:42:55.841Z,3.50
2022-09-13T16:47:58.476Z,2.00
2022-09-13T16:53:01.099Z,2.00
2022-09-13T16:58:05.090Z,2.00
2022-09-13T17:03:07.764Z,3.00
2022-09-13T17:08:10.377Z,3.50
2022-09-13T17:13:14.343Z,3.50
2022-09-13T17:18:17.162Z,3.00
2022-09-13T17:23:19.997Z,3.00
2022-09-13T17:28:23.949Z,4.00
2022-09-13T17:33:26.510Z,3.00
2022-09-13T17:38:29.391Z,4.25
2022-09-13T17:43:34.974Z,3.50
2022-09-13T17:48:37.769Z,4.50
2022-09-13T17:53:41.807Z,4.00
2022-09-13T17:58:45.760Z,4.75
2022-09-13T18:03:48.521Z,4.00
2022-09-13T18:08:54.112Z,3.25
2022-09-13T18:13:58.643Z,3.00
2022-09-13T18:19:02.156Z,3.75
2022-09-13T18:24:05.317Z,4.00
2022-09-13T18:29:13.057Z,4.00
2022-09-13T18:34:15.955Z,6.00
2022-09-13T18:39:20.546Z,4.00
2022-09-13T18:44:24.501Z,5.00
2022-09-13T18:49:27.090Z,5.75
2022-09-13T18:54:29.643Z,5.75
2022-09-13T18:59:33.605Z,5.00
2022-09-13T19:04:37.063Z,5.00
2022-09-13T19:09:39.681Z,5.50
2022-09-13T19:14:44.408Z,6.00
2022-09-13T19:19:47.355Z,5.00
2022-09-13T19:24:51.721Z,4.50
2022-09-13T19:29:55.749Z,6.25
2022-09-13T19:34:58.470Z,6.00
2022-09-13T19:40:01.300Z,6.75
2022-09-13T19:45:06.051Z,6.50
2022-09-13T19:50:10.059Z,6.00
2022-09-13T19:55:12.855Z,6.50
2022-09-13T20:00:17.375Z,5.75
2022-09-13T20:05:20.765Z,6.00
2022-09-13T20:10:24.582Z,5.75
2022-09-13T20:15:30.926Z,6.50
2022-09-13T20:20:35.640Z,7.50
2022-09-13T20:25:41.748Z,7.00
2022-09-13T20:30:54.094Z,7.00
2022-09-13T20:35:56.791Z,5.75
2022-09-13T20:41:03.333Z,7.00
2022-09-13T20:46:08.334Z,6.50
2022-09-13T20:51:13.763Z,7.00
2022-09-13T20:56:18.477Z,7.25
2022-09-13T21:01:23.716Z,5.00
2022-09-13T21:06:28.437Z,6.25
2022-09-13T21:11:35.026Z,6.00
2022-09-13T21:16:41.313Z,7.00
2022-09-13T21:21:44.088Z,7.25
2022-09-13T21:26:46.717Z,6.50
2022-09-13T21:31:50.722Z,6.75
2022-09-13T21:36:53.362Z,5.25
2022-09-13T21:41:56.593Z,6.25
2022-09-13T21:47:00.573Z,6.25
2022-09-13T21:52:03.751Z,6.50
2022-09-13T21:57:06.565Z,6.25
2022-09-13T22:02:11.653Z,6.00
2022-09-13T22:07:14.599Z,7.00
2022-09-13T22:12:17.126Z,6.00
2022-09-13T22:17:21.032Z,5.00
2022-09-13T22:22:23.689Z,6.25
2022-09-13T22:27:27.563Z,6.00
2022-09-13T22:32:31.490Z,6.75
2022-09-13T22:37:34.120Z,8.00
2022-09-13T22:42:36.740Z,6.25
2022-09-13T22:47:40.673Z,7.50
2022-09-13T22:52:43.310Z,6.50
2022-09-13T22:57:45.920Z,7.00
2022-09-13T23:02:49.884Z,6.50
2022-09-13T23:07:52.569Z,6.00
2022-09-13T23:12:55.599Z,6.00
2022-09-13T23:17:59.635Z,7.25
2022-09-13T23:23:02.484Z,7.00
2022-09-13T23:28:05.160Z,6.00
2022-09-13T23:33:11.791Z,6.75
2022-09-13T23:38:14.530Z,7.00
2022-09-13T23:43:17.235Z,6.50
2022-09-13T23:48:21.430Z,6.00
2022-09-13T23:53:24.284Z,5.25
2022-09-13T23:58:27.507Z,5.00
